sensor_id;sensor_type;location;lat;lon;timestamp;P1;durP1;ratioP1;P2;durP2;ratioP2
29412;SDS011;16389;50.126;8.450;2023-12-04T00:00:27;23.77;;;15.43;;
29412;SDS011;16389;50.126;8.450;2023-12-04T00:02:52;28.70;;;16.25;;
29412;SDS011;16389;50.126;8.450;2023-12-04T00:05:18;26.70;;;15.60;;
29412;SDS011;16389;50.126;8.450;2023-12-04T00:07:44;30.00;;;15.43;;
29412;SDS011;16389;50.126;8.450;2023-12-04T00:10:09;30.17;;;15.85;;
29412;SDS011;16389;50.126;8.450;2023-12-04T00:12:35;28.35;;;16.58;;
29412;SDS011;16389;50.126;8.450;2023-12-04T00:15:07;27.58;;;15.30;;
29412;SDS011;16389;50.126;8.450;2023-12-04T00:17:33;29.33;;;15.75;;
29412;SDS011;16389;50.126;8.450;2023-12-04T00:19:59;29.38;;;16.90;;
29412;SDS011;16389;50.126;8.450;2023-12-04T00:22:25;28.40;;;16.60;;
29412;SDS011;16389;50.126;8.450;2023-12-04T00:24:50;24.75;;;15.60;;
29412;SDS011;16389;50.126;8.450;2023-12-04T00:27:16;28.58;;;16.25;;
29412;SDS011;16389;50.126;8.450;2023-12-04T00:29:42;29.15;;;16.67;;
29412;SDS011;16389;50.126;8.450;2023-12-04T00:32:07;31.05;;;16.15;;
29412;SDS011;16389;50.126;8.450;2023-12-04T00:34:33;31.38;;;16.15;;
29412;SDS011;16389;50.126;8.450;2023-12-04T00:36:59;32.53;;;15.52;;
29412;SDS011;16389;50.126;8.450;2023-12-04T00:39:24;29.73;;;16.58;;
29412;SDS011;16389;50.126;8.450;2023-12-04T00:41:50;30.80;;;17.40;;
29412;SDS011;16389;50.126;8.450;2023-12-04T00:44:15;33.53;;;17.75;;
29412;SDS011;16389;50.126;8.450;2023-12-04T00:46:41;32.10;;;17.05;;
29412;SDS011;16389;50.126;8.450;2023-12-04T00:49:06;32.90;;;18.38;;
29412;SDS011;16389;50.126;8.450;2023-12-04T00:51:38;34.80;;;17.88;;
29412;SDS011;16389;50.126;8.450;2023-12-04T00:54:04;33.50;;;17.90;;
29412;SDS011;16389;50.126;8.450;2023-12-04T00:56:29;31.83;;;17.45;;
29412;SDS011;16389;50.126;8.450;2023-12-04T00:58:55;33.78;;;17.48;;
29412;SDS011;16389;50.126;8.450;2023-12-04T01:01:21;34.97;;;18.13;;
29412;SDS011;16389;50.126;8.450;2023-12-04T01:03:46;37.17;;;18.75;;
29412;SDS011;16389;50.126;8.450;2023-12-04T01:06:21;34.38;;;17.80;;
29412;SDS011;16389;50.126;8.450;2023-12-04T01:08:48;32.58;;;17.63;;
29412;SDS011;16389;50.126;8.450;2023-12-04T01:11:15;37.50;;;17.75;;
29412;SDS011;16389;50.126;8.450;2023-12-04T01:13:42;31.88;;;16.23;;
29412;SDS011;16389;50.126;8.450;2023-12-04T01:16:08;33.63;;;17.63;;
29412;SDS011;16389;50.126;8.450;2023-12-04T01:18:36;39.58;;;17.90;;
29412;SDS011;16389;50.126;8.450;2023-12-04T01:21:02;31.60;;;17.27;;
29412;SDS011;16389;50.126;8.450;2023-12-04T01:23:28;41.53;;;19.75;;
29412;SDS011;16389;50.126;8.450;2023-12-04T01:25:54;37.85;;;19.10;;
29412;SDS011;16389;50.126;8.450;2023-12-04T01:28:20;40.25;;;18.50;;
29412;SDS011;16389;50.126;8.450;2023-12-04T01:30:45;37.90;;;17.35;;
29412;SDS011;16389;50.126;8.450;2023-12-04T01:33:11;36.72;;;18.05;;
29412;SDS011;16389;50.126;8.450;2023-12-04T01:35:36;30.02;;;17.00;;
29412;SDS011;16389;50.126;8.450;2023-12-04T01:38:02;33.97;;;19.02;;
29412;SDS011;16389;50.126;8.450;2023-12-04T01:40:27;38.67;;;19.15;;
29412;SDS011;16389;50.126;8.450;2023-12-04T01:42:53;33.30;;;18.80;;
29412;SDS011;16389;50.126;8.450;2023-12-04T01:45:18;40.88;;;19.40;;
29412;SDS011;16389;50.126;8.450;2023-12-04T01:47:44;39.78;;;18.83;;
29412;SDS011;16389;50.126;8.450;2023-12-04T01:50:11;34.42;;;18.08;;
29412;SDS011;16389;50.126;8.450;2023-12-04T01:52:38;38.88;;;19.17;;
29412;SDS011;16389;50.126;8.450;2023-12-04T01:55:05;30.92;;;17.88;;
29412;SDS011;16389;50.126;8.450;2023-12-04T01:57:33;39.88;;;18.38;;
29412;SDS011;16389;50.126;8.450;2023-12-04T01:59:59;41.13;;;19.13;;
29412;SDS011;16389;50.126;8.450;2023-12-04T02:02:25;29.92;;;17.27;;
29412;SDS011;16389;50.126;8.450;2023-12-04T02:04:55;37.78;;;19.27;;
29412;SDS011;16389;50.126;8.450;2023-12-04T02:07:22;35.47;;;18.30;;
29412;SDS011;16389;50.126;8.450;2023-12-04T02:09:48;36.95;;;18.98;;
29412;SDS011;16389;50.126;8.450;2023-12-04T02:12:14;42.10;;;18.90;;
29412;SDS011;16389;50.126;8.450;2023-12-04T02:14:41;35.42;;;18.17;;
29412;SDS011;16389;50.126;8.450;2023-12-04T02:17:06;41.95;;;19.85;;
29412;SDS011;16389;50.126;8.450;2023-12-04T02:19:34;41.17;;;19.98;;
29412;SDS011;16389;50.126;8.450;2023-12-04T02:21:59;35.78;;;18.52;;
29412;SDS011;16389;50.126;8.450;2023-12-04T02:24:25;31.55;;;16.88;;
29412;SDS011;16389;50.126;8.450;2023-12-04T02:26:58;35.72;;;18.95;;
29412;SDS011;16389;50.126;8.450;2023-12-04T02:29:30;40.83;;;20.05;;
29412;SDS011;16389;50.126;8.450;2023-12-04T02:32:01;42.75;;;19.65;;
29412;SDS011;16389;50.126;8.450;2023-12-04T02:34:30;39.70;;;18.65;;
29412;SDS011;16389;50.126;8.450;2023-12-04T02:36:58;34.22;;;18.90;;
29412;SDS011;16389;50.126;8.450;2023-12-04T02:39:28;38.35;;;19.98;;
29412;SDS011;16389;50.126;8.450;2023-12-04T02:41:54;33.92;;;17.73;;
29412;SDS011;16389;50.126;8.450;2023-12-04T02:44:19;33.85;;;17.92;;
29412;SDS011;16389;50.126;8.450;2023-12-04T02:46:46;36.75;;;18.48;;
29412;SDS011;16389;50.126;8.450;2023-12-04T02:49:12;42.45;;;19.17;;
29412;SDS011;16389;50.126;8.450;2023-12-04T02:51:40;33.92;;;17.27;;
29412;SDS011;16389;50.126;8.450;2023-12-04T02:54:06;33.78;;;18.20;;
29412;SDS011;16389;50.126;8.450;2023-12-04T02:56:32;38.38;;;18.25;;
29412;SDS011;16389;50.126;8.450;2023-12-04T02:58:57;35.05;;;19.00;;
29412;SDS011;16389;50.126;8.450;2023-12-04T03:01:23;39.03;;;18.75;;
29412;SDS011;16389;50.126;8.450;2023-12-04T03:03:49;38.00;;;18.17;;
29412;SDS011;16389;50.126;8.450;2023-12-04T03:06:14;42.97;;;19.20;;
29412;SDS011;16389;50.126;8.450;2023-12-04T03:08:42;39.70;;;19.00;;
29412;SDS011;16389;50.126;8.450;2023-12-04T03:11:08;41.78;;;19.52;;
29412;SDS011;16389;50.126;8.450;2023-12-04T03:13:34;39.28;;;19.55;;
29412;SDS011;16389;50.126;8.450;2023-12-04T03:16:00;39.22;;;18.67;;
29412;SDS011;16389;50.126;8.450;2023-12-04T03:18:26;38.13;;;19.33;;
29412;SDS011;16389;50.126;8.450;2023-12-04T03:20:53;39.30;;;19.15;;
29412;SDS011;16389;50.126;8.450;2023-12-04T03:23:19;37.45;;;19.17;;
29412;SDS011;16389;50.126;8.450;2023-12-04T03:25:45;37.50;;;19.13;;
29412;SDS011;16389;50.126;8.450;2023-12-04T03:28:11;34.88;;;18.30;;
29412;SDS011;16389;50.126;8.450;2023-12-04T03:30:40;38.78;;;18.58;;
29412;SDS011;16389;50.126;8.450;2023-12-04T03:33:08;36.50;;;18.73;;
29412;SDS011;16389;50.126;8.450;2023-12-04T03:35:35;39.58;;;18.92;;
29412;SDS011;16389;50.126;8.450;2023-12-04T03:38:00;38.45;;;18.83;;
29412;SDS011;16389;50.126;8.450;2023-12-04T03:40:26;37.47;;;18.95;;
29412;SDS011;16389;50.126;8.450;2023-12-04T03:42:52;30.45;;;16.90;;
29412;SDS011;16389;50.126;8.450;2023-12-04T03:45:18;31.98;;;18.20;;
29412;SDS011;16389;50.126;8.450;2023-12-04T03:47:46;33.50;;;17.70;;
29412;SDS011;16389;50.126;8.450;2023-12-04T03:50:12;32.88;;;18.13;;
29412;SDS011;16389;50.126;8.450;2023-12-04T03:52:38;40.08;;;19.05;;
29412;SDS011;16389;50.126;8.450;2023-12-04T03:55:04;41.00;;;19.17;;
29412;SDS011;16389;50.126;8.450;2023-12-04T03:57:30;35.80;;;19.17;;
29412;SDS011;16389;50.126;8.450;2023-12-04T03:59:56;34.33;;;17.45;;
29412;SDS011;16389;50.126;8.450;2023-12-04T04:02:22;34.22;;;18.55;;
29412;SDS011;16389;50.126;8.450;2023-12-04T04:04:48;34.63;;;18.42;;
29412;SDS011;16389;50.126;8.450;2023-12-04T04:07:15;38.40;;;18.15;;
29412;SDS011;16389;50.126;8.450;2023-12-04T04:09:42;28.98;;;17.40;;
29412;SDS011;16389;50.126;8.450;2023-12-04T04:12:08;35.63;;;18.13;;
29412;SDS011;16389;50.126;8.450;2023-12-04T04:14:34;30.40;;;17.50;;
29412;SDS011;16389;50.126;8.450;2023-12-04T04:17:00;33.67;;;16.42;;
29412;SDS011;16389;50.126;8.450;2023-12-04T04:19:26;36.03;;;18.23;;
29412;SDS011;16389;50.126;8.450;2023-12-04T04:21:52;37.83;;;19.05;;
29412;SDS011;16389;50.126;8.450;2023-12-04T04:24:17;29.63;;;16.42;;
29412;SDS011;16389;50.126;8.450;2023-12-04T04:26:43;26.55;;;16.77;;
29412;SDS011;16389;50.126;8.450;2023-12-04T04:29:09;31.55;;;17.45;;
29412;SDS011;16389;50.126;8.450;2023-12-04T04:31:34;27.85;;;17.17;;
29412;SDS011;16389;50.126;8.450;2023-12-04T04:34:00;34.30;;;17.08;;
29412;SDS011;16389;50.126;8.450;2023-12-04T04:36:26;32.67;;;16.60;;
29412;SDS011;16389;50.126;8.450;2023-12-04T04:38:52;31.27;;;16.67;;
29412;SDS011;16389;50.126;8.450;2023-12-04T04:41:17;32.83;;;17.63;;
29412;SDS011;16389;50.126;8.450;2023-12-04T04:43:43;31.77;;;17.63;;
29412;SDS011;16389;50.126;8.450;2023-12-04T04:46:09;24.45;;;15.52;;
29412;SDS011;16389;50.126;8.450;2023-12-04T04:48:35;34.10;;;18.52;;
29412;SDS011;16389;50.126;8.450;2023-12-04T04:51:00;31.73;;;17.10;;
29412;SDS011;16389;50.126;8.450;2023-12-04T04:53:26;33.08;;;17.45;;
29412;SDS011;16389;50.126;8.450;2023-12-04T04:55:52;32.38;;;17.85;;
29412;SDS011;16389;50.126;8.450;2023-12-04T04:58:17;33.70;;;18.00;;
29412;SDS011;16389;50.126;8.450;2023-12-04T05:00:46;33.85;;;17.60;;
29412;SDS011;16389;50.126;8.450;2023-12-04T05:03:14;30.00;;;16.67;;
29412;SDS011;16389;50.126;8.450;2023-12-04T05:05:40;30.58;;;16.75;;
29412;SDS011;16389;50.126;8.450;2023-12-04T05:08:06;28.70;;;16.25;;
29412;SDS011;16389;50.126;8.450;2023-12-04T05:10:32;32.03;;;17.38;;
29412;SDS011;16389;50.126;8.450;2023-12-04T05:12:57;31.35;;;16.67;;
29412;SDS011;16389;50.126;8.450;2023-12-04T05:15:23;31.83;;;18.52;;
29412;SDS011;16389;50.126;8.450;2023-12-04T05:17:50;27.23;;;17.25;;
29412;SDS011;16389;50.126;8.450;2023-12-04T05:20:16;31.13;;;17.65;;
29412;SDS011;16389;50.126;8.450;2023-12-04T05:22:42;31.63;;;17.48;;
29412;SDS011;16389;50.126;8.450;2023-12-04T05:25:07;32.95;;;16.77;;
29412;SDS011;16389;50.126;8.450;2023-12-04T05:27:33;35.65;;;17.92;;
29412;SDS011;16389;50.126;8.450;2023-12-04T05:29:58;34.58;;;18.33;;
29412;SDS011;16389;50.126;8.450;2023-12-04T05:32:24;35.38;;;18.02;;
29412;SDS011;16389;50.126;8.450;2023-12-04T05:34:50;33.15;;;17.77;;
29412;SDS011;16389;50.126;8.450;2023-12-04T05:37:15;29.92;;;17.30;;
29412;SDS011;16389;50.126;8.450;2023-12-04T05:39:41;35.00;;;18.85;;
29412;SDS011;16389;50.126;8.450;2023-12-04T05:42:07;32.22;;;16.65;;
29412;SDS011;16389;50.126;8.450;2023-12-04T05:44:33;31.58;;;18.02;;
29412;SDS011;16389;50.126;8.450;2023-12-04T05:46:59;30.45;;;16.52;;
29412;SDS011;16389;50.126;8.450;2023-12-04T05:49:25;31.30;;;17.13;;
29412;SDS011;16389;50.126;8.450;2023-12-04T05:51:51;29.92;;;16.33;;
29412;SDS011;16389;50.126;8.450;2023-12-04T05:54:17;30.02;;;16.00;;
29412;SDS011;16389;50.126;8.450;2023-12-04T05:56:42;32.08;;;17.27;;
29412;SDS011;16389;50.126;8.450;2023-12-04T05:59:08;30.67;;;16.88;;
29412;SDS011;16389;50.126;8.450;2023-12-04T06:01:34;31.40;;;16.13;;
29412;SDS011;16389;50.126;8.450;2023-12-04T06:04:00;32.60;;;17.80;;
29412;SDS011;16389;50.126;8.450;2023-12-04T06:06:26;28.75;;;16.17;;
29412;SDS011;16389;50.126;8.450;2023-12-04T06:08:52;29.55;;;15.75;;
29412;SDS011;16389;50.126;8.450;2023-12-04T06:11:17;30.30;;;16.45;;
29412;SDS011;16389;50.126;8.450;2023-12-04T06:13:46;28.95;;;16.90;;
29412;SDS011;16389;50.126;8.450;2023-12-04T06:16:12;33.97;;;16.48;;
29412;SDS011;16389;50.126;8.450;2023-12-04T06:18:38;33.45;;;17.83;;
29412;SDS011;16389;50.126;8.450;2023-12-04T06:21:04;31.17;;;17.77;;
29412;SDS011;16389;50.126;8.450;2023-12-04T06:23:30;31.85;;;17.60;;
29412;SDS011;16389;50.126;8.450;2023-12-04T06:25:55;27.77;;;16.20;;
29412;SDS011;16389;50.126;8.450;2023-12-04T06:28:22;31.95;;;19.45;;
29412;SDS011;16389;50.126;8.450;2023-12-04T06:30:47;31.58;;;18.00;;
29412;SDS011;16389;50.126;8.450;2023-12-04T06:33:13;37.25;;;17.77;;
29412;SDS011;16389;50.126;8.450;2023-12-04T06:35:40;32.08;;;15.93;;
29412;SDS011;16389;50.126;8.450;2023-12-04T06:38:06;27.55;;;16.38;;
29412;SDS011;16389;50.126;8.450;2023-12-04T06:40:33;27.38;;;15.85;;
29412;SDS011;16389;50.126;8.450;2023-12-04T06:42:59;29.80;;;16.52;;
29412;SDS011;16389;50.126;8.450;2023-12-04T06:45:25;29.42;;;16.90;;
29412;SDS011;16389;50.126;8.450;2023-12-04T06:47:52;31.90;;;17.30;;
29412;SDS011;16389;50.126;8.450;2023-12-04T06:50:19;33.22;;;17.40;;
29412;SDS011;16389;50.126;8.450;2023-12-04T06:52:44;28.17;;;15.70;;
29412;SDS011;16389;50.126;8.450;2023-12-04T06:55:10;35.53;;;16.70;;
29412;SDS011;16389;50.126;8.450;2023-12-04T06:57:37;31.58;;;16.42;;
29412;SDS011;16389;50.126;8.450;2023-12-04T07:00:03;31.02;;;16.15;;
29412;SDS011;16389;50.126;8.450;2023-12-04T07:02:29;30.02;;;16.88;;
29412;SDS011;16389;50.126;8.450;2023-12-04T07:04:55;32.38;;;16.98;;
29412;SDS011;16389;50.126;8.450;2023-12-04T07:07:20;28.70;;;16.00;;
29412;SDS011;16389;50.126;8.450;2023-12-04T07:09:46;31.27;;;17.67;;
29412;SDS011;16389;50.126;8.450;2023-12-04T07:12:13;32.95;;;16.15;;
29412;SDS011;16389;50.126;8.450;2023-12-04T07:14:39;26.50;;;15.10;;
29412;SDS011;16389;50.126;8.450;2023-12-04T07:17:04;27.02;;;15.55;;
29412;SDS011;16389;50.126;8.450;2023-12-04T07:19:30;27.50;;;15.50;;
29412;SDS011;16389;50.126;8.450;2023-12-04T07:21:56;28.25;;;16.08;;
29412;SDS011;16389;50.126;8.450;2023-12-04T07:24:21;26.92;;;15.63;;
29412;SDS011;16389;50.126;8.450;2023-12-04T07:26:47;26.80;;;16.55;;
29412;SDS011;16389;50.126;8.450;2023-12-04T07:29:13;27.48;;;16.88;;
29412;SDS011;16389;50.126;8.450;2023-12-04T07:31:40;31.40;;;16.70;;
29412;SDS011;16389;50.126;8.450;2023-12-04T07:34:07;28.40;;;16.05;;
29412;SDS011;16389;50.126;8.450;2023-12-04T07:36:33;32.47;;;16.85;;
29412;SDS011;16389;50.126;8.450;2023-12-04T07:38:59;25.10;;;15.52;;
29412;SDS011;16389;50.126;8.450;2023-12-04T07:41:25;26.20;;;16.23;;
29412;SDS011;16389;50.126;8.450;2023-12-04T07:43:51;28.83;;;16.38;;
29412;SDS011;16389;50.126;8.450;2023-12-04T07:46:17;23.73;;;15.38;;
29412;SDS011;16389;50.126;8.450;2023-12-04T07:48:43;22.55;;;14.57;;
29412;SDS011;16389;50.126;8.450;2023-12-04T07:51:10;20.80;;;14.48;;
29412;SDS011;16389;50.126;8.450;2023-12-04T07:53:36;27.73;;;15.30;;
29412;SDS011;16389;50.126;8.450;2023-12-04T07:56:02;28.75;;;16.27;;
29412;SDS011;16389;50.126;8.450;2023-12-04T07:58:29;26.00;;;15.18;;
29412;SDS011;16389;50.126;8.450;2023-12-04T08:00:55;29.35;;;15.50;;
29412;SDS011;16389;50.126;8.450;2023-12-04T08:03:21;23.77;;;15.65;;
29412;SDS011;16389;50.126;8.450;2023-12-04T08:05:48;36.83;;;17.63;;
29412;SDS011;16389;50.126;8.450;2023-12-04T08:08:14;23.70;;;15.00;;
29412;SDS011;16389;50.126;8.450;2023-12-04T08:10:40;26.42;;;15.48;;
29412;SDS011;16389;50.126;8.450;2023-12-04T08:13:06;28.13;;;15.40;;
29412;SDS011;16389;50.126;8.450;2023-12-04T08:15:32;29.63;;;16.00;;
29412;SDS011;16389;50.126;8.450;2023-12-04T08:17:58;30.35;;;16.00;;
29412;SDS011;16389;50.126;8.450;2023-12-04T08:20:25;29.02;;;16.45;;
29412;SDS011;16389;50.126;8.450;2023-12-04T08:22:54;21.83;;;14.43;;
29412;SDS011;16389;50.126;8.450;2023-12-04T08:25:20;24.13;;;14.98;;
29412;SDS011;16389;50.126;8.450;2023-12-04T08:27:46;22.98;;;14.85;;
29412;SDS011;16389;50.126;8.450;2023-12-04T08:30:14;19.67;;;14.00;;
29412;SDS011;16389;50.126;8.450;2023-12-04T08:32:40;21.55;;;15.13;;
29412;SDS011;16389;50.126;8.450;2023-12-04T08:35:06;21.63;;;14.45;;
29412;SDS011;16389;50.126;8.450;2023-12-04T08:37:31;25.30;;;15.18;;
29412;SDS011;16389;50.126;8.450;2023-12-04T08:39:57;23.92;;;15.45;;
29412;SDS011;16389;50.126;8.450;2023-12-04T08:42:29;20.20;;;14.05;;
29412;SDS011;16389;50.126;8.450;2023-12-04T08:44:55;22.52;;;14.45;;
29412;SDS011;16389;50.126;8.450;2023-12-04T08:47:20;18.60;;;14.25;;
29412;SDS011;16389;50.126;8.450;2023-12-04T08:49:46;20.35;;;14.40;;
29412;SDS011;16389;50.126;8.450;2023-12-04T08:52:12;20.55;;;13.27;;
29412;SDS011;16389;50.126;8.450;2023-12-04T08:54:40;20.90;;;14.30;;
29412;SDS011;16389;50.126;8.450;2023-12-04T08:57:06;23.00;;;15.05;;
29412;SDS011;16389;50.126;8.450;2023-12-04T08:59:33;20.77;;;14.73;;
29412;SDS011;16389;50.126;8.450;2023-12-04T09:01:59;25.85;;;14.70;;
29412;SDS011;16389;50.126;8.450;2023-12-04T09:04:28;18.27;;;13.60;;
29412;SDS011;16389;50.126;8.450;2023-12-04T09:06:55;24.42;;;13.85;;
29412;SDS011;16389;50.126;8.450;2023-12-04T09:09:21;19.02;;;13.63;;
29412;SDS011;16389;50.126;8.450;2023-12-04T09:11:47;21.30;;;13.18;;
29412;SDS011;16389;50.126;8.450;2023-12-04T09:14:12;19.80;;;14.98;;
29412;SDS011;16389;50.126;8.450;2023-12-04T09:16:39;21.30;;;14.52;;
29412;SDS011;16389;50.126;8.450;2023-12-04T09:19:05;21.50;;;13.57;;
29412;SDS011;16389;50.126;8.450;2023-12-04T09:21:30;19.85;;;14.18;;
29412;SDS011;16389;50.126;8.450;2023-12-04T09:23:56;18.48;;;13.05;;
29412;SDS011;16389;50.126;8.450;2023-12-04T09:26:22;22.90;;;15.32;;
29412;SDS011;16389;50.126;8.450;2023-12-04T09:28:48;21.90;;;14.30;;
29412;SDS011;16389;50.126;8.450;2023-12-04T09:31:14;18.73;;;13.70;;
29412;SDS011;16389;50.126;8.450;2023-12-04T09:33:40;19.23;;;13.65;;
29412;SDS011;16389;50.126;8.450;2023-12-04T09:36:06;21.70;;;13.70;;
29412;SDS011;16389;50.126;8.450;2023-12-04T09:38:33;22.00;;;13.93;;
29412;SDS011;16389;50.126;8.450;2023-12-04T09:41:00;22.80;;;15.18;;
29412;SDS011;16389;50.126;8.450;2023-12-04T09:43:30;23.48;;;15.70;;
29412;SDS011;16389;50.126;8.450;2023-12-04T09:45:57;21.65;;;14.35;;
29412;SDS011;16389;50.126;8.450;2023-12-04T09:48:24;21.00;;;13.38;;
29412;SDS011;16389;50.126;8.450;2023-12-04T09:50:52;20.33;;;14.20;;
29412;SDS011;16389;50.126;8.450;2023-12-04T09:53:18;21.75;;;14.05;;
29412;SDS011;16389;50.126;8.450;2023-12-04T09:55:48;20.13;;;13.68;;
29412;SDS011;16389;50.126;8.450;2023-12-04T09:58:14;21.95;;;14.82;;
29412;SDS011;16389;50.126;8.450;2023-12-04T10:00:43;25.40;;;15.02;;
29412;SDS011;16389;50.126;8.450;2023-12-04T10:03:09;20.42;;;13.52;;
29412;SDS011;16389;50.126;8.450;2023-12-04T10:05:37;21.23;;;14.50;;
29412;SDS011;16389;50.126;8.450;2023-12-04T10:08:03;20.27;;;13.80;;
29412;SDS011;16389;50.126;8.450;2023-12-04T10:10:29;20.23;;;13.88;;
29412;SDS011;16389;50.126;8.450;2023-12-04T10:12:55;22.33;;;13.63;;
29412;SDS011;16389;50.126;8.450;2023-12-04T10:15:21;23.08;;;15.15;;
29412;SDS011;16389;50.126;8.450;2023-12-04T10:17:47;19.10;;;13.93;;
29412;SDS011;16389;50.126;8.450;2023-12-04T10:20:14;22.98;;;14.85;;
29412;SDS011;16389;50.126;8.450;2023-12-04T10:23:00;25.80;;;15.30;;
29412;SDS011;16389;50.126;8.450;2023-12-04T10:25:27;18.77;;;14.02;;
29412;SDS011;16389;50.126;8.450;2023-12-04T10:27:54;22.23;;;14.50;;
29412;SDS011;16389;50.126;8.450;2023-12-04T10:30:33;21.17;;;14.10;;
29412;SDS011;16389;50.126;8.450;2023-12-04T10:33:02;19.23;;;13.88;;
29412;SDS011;16389;50.126;8.450;2023-12-04T10:35:30;17.05;;;13.18;;
29412;SDS011;16389;50.126;8.450;2023-12-04T10:37:57;18.23;;;12.93;;
29412;SDS011;16389;50.126;8.450;2023-12-04T10:40:28;22.50;;;14.13;;
29412;SDS011;16389;50.126;8.450;2023-12-04T10:45:39;23.40;;;13.77;;
29412;SDS011;16389;50.126;8.450;2023-12-04T10:48:09;21.10;;;14.02;;
29412;SDS011;16389;50.126;8.450;2023-12-04T10:50:39;20.13;;;13.73;;
29412;SDS011;16389;50.126;8.450;2023-12-04T10:53:06;20.27;;;13.55;;
29412;SDS011;16389;50.126;8.450;2023-12-04T10:55:33;19.08;;;13.63;;
29412;SDS011;16389;50.126;8.450;2023-12-04T10:58:00;17.33;;;13.70;;
29412;SDS011;16389;50.126;8.450;2023-12-04T11:00:28;18.88;;;13.75;;
29412;SDS011;16389;50.126;8.450;2023-12-04T11:02:57;17.30;;;13.13;;
29412;SDS011;16389;50.126;8.450;2023-12-04T11:05:29;16.35;;;12.07;;
29412;SDS011;16389;50.126;8.450;2023-12-04T11:07:58;18.42;;;13.93;;
29412;SDS011;16389;50.126;8.450;2023-12-04T11:10:27;17.90;;;14.43;;
29412;SDS011;16389;50.126;8.450;2023-12-04T11:13:06;18.85;;;13.57;;
29412;SDS011;16389;50.126;8.450;2023-12-04T11:15:38;17.17;;;12.90;;
29412;SDS011;16389;50.126;8.450;2023-12-04T11:18:09;17.58;;;13.18;;
29412;SDS011;16389;50.126;8.450;2023-12-04T11:20:44;15.95;;;13.52;;
29412;SDS011;16389;50.126;8.450;2023-12-04T11:23:16;19.52;;;13.75;;
29412;SDS011;16389;50.126;8.450;2023-12-04T11:25:42;16.52;;;12.45;;
29412;SDS011;16389;50.126;8.450;2023-12-04T11:28:09;16.85;;;13.30;;
29412;SDS011;16389;50.126;8.450;2023-12-04T11:30:36;20.00;;;14.63;;
29412;SDS011;16389;50.126;8.450;2023-12-04T11:33:04;21.13;;;14.38;;
29412;SDS011;16389;50.126;8.450;2023-12-04T11:35:36;20.17;;;14.98;;
29412;SDS011;16389;50.126;8.450;2023-12-04T11:38:04;21.20;;;14.00;;
29412;SDS011;16389;50.126;8.450;2023-12-04T11:40:32;18.23;;;13.82;;
29412;SDS011;16389;50.126;8.450;2023-12-04T11:42:57;24.85;;;15.90;;
29412;SDS011;16389;50.126;8.450;2023-12-04T11:45:23;20.23;;;15.30;;
29412;SDS011;16389;50.126;8.450;2023-12-04T11:47:56;18.13;;;13.02;;
29412;SDS011;16389;50.126;8.450;2023-12-04T11:50:25;20.00;;;13.50;;
29412;SDS011;16389;50.126;8.450;2023-12-04T11:52:52;18.02;;;13.43;;
29412;SDS011;16389;50.126;8.450;2023-12-04T11:55:21;22.98;;;14.50;;
29412;SDS011;16389;50.126;8.450;2023-12-04T12:05:19;22.10;;;15.45;;
29412;SDS011;16389;50.126;8.450;2023-12-04T12:07:45;19.58;;;14.43;;
29412;SDS011;16389;50.126;8.450;2023-12-04T12:10:12;21.90;;;15.73;;
29412;SDS011;16389;50.126;8.450;2023-12-04T12:12:42;24.80;;;14.75;;
29412;SDS011;16389;50.126;8.450;2023-12-04T12:15:11;21.90;;;14.90;;
29412;SDS011;16389;50.126;8.450;2023-12-04T12:17:37;24.45;;;15.40;;
29412;SDS011;16389;50.126;8.450;2023-12-04T12:20:05;29.58;;;16.67;;
29412;SDS011;16389;50.126;8.450;2023-12-04T12:22:32;26.33;;;16.85;;
29412;SDS011;16389;50.126;8.450;2023-12-04T12:24:58;29.88;;;17.77;;
29412;SDS011;16389;50.126;8.450;2023-12-04T12:27:29;23.05;;;14.65;;
29412;SDS011;16389;50.126;8.450;2023-12-04T12:29:55;27.20;;;15.70;;
29412;SDS011;16389;50.126;8.450;2023-12-04T12:32:22;24.85;;;15.93;;
29412;SDS011;16389;50.126;8.450;2023-12-04T12:34:48;26.05;;;16.77;;
29412;SDS011;16389;50.126;8.450;2023-12-04T12:37:14;28.17;;;16.75;;
29412;SDS011;16389;50.126;8.450;2023-12-04T12:39:44;23.73;;;15.25;;
29412;SDS011;16389;50.126;8.450;2023-12-04T12:42:20;20.83;;;14.00;;
29412;SDS011;16389;50.126;8.450;2023-12-04T12:44:49;18.90;;;13.65;;
29412;SDS011;16389;50.126;8.450;2023-12-04T12:47:15;21.87;;;14.53;;
29412;SDS011;16389;50.126;8.450;2023-12-04T12:49:41;19.55;;;13.48;;
29412;SDS011;16389;50.126;8.450;2023-12-04T12:52:07;20.80;;;13.95;;
29412;SDS011;16389;50.126;8.450;2023-12-04T12:54:36;22.33;;;13.52;;
29412;SDS011;16389;50.126;8.450;2023-12-04T12:57:02;24.30;;;13.70;;
29412;SDS011;16389;50.126;8.450;2023-12-04T12:59:28;18.02;;;13.68;;
29412;SDS011;16389;50.126;8.450;2023-12-04T13:01:54;21.13;;;14.63;;
29412;SDS011;16389;50.126;8.450;2023-12-04T13:04:21;20.30;;;13.70;;
29412;SDS011;16389;50.126;8.450;2023-12-04T13:06:48;23.90;;;15.20;;
29412;SDS011;16389;50.126;8.450;2023-12-04T13:09:17;23.00;;;14.90;;
29412;SDS011;16389;50.126;8.450;2023-12-04T13:11:46;21.80;;;15.15;;
29412;SDS011;16389;50.126;8.450;2023-12-04T13:14:14;22.60;;;14.27;;
29412;SDS011;16389;50.126;8.450;2023-12-04T13:16:40;24.00;;;16.10;;
29412;SDS011;16389;50.126;8.450;2023-12-04T13:19:06;26.65;;;16.15;;
29412;SDS011;16389;50.126;8.450;2023-12-04T13:21:32;24.77;;;15.25;;
29412;SDS011;16389;50.126;8.450;2023-12-04T13:23:58;23.45;;;16.10;;
29412;SDS011;16389;50.126;8.450;2023-12-04T13:26:36;23.35;;;15.25;;
29412;SDS011;16389;50.126;8.450;2023-12-04T13:29:02;25.40;;;15.43;;
29412;SDS011;16389;50.126;8.450;2023-12-04T13:31:28;25.77;;;16.33;;
29412;SDS011;16389;50.126;8.450;2023-12-04T13:33:54;25.05;;;16.95;;
29412;SDS011;16389;50.126;8.450;2023-12-04T13:36:20;28.80;;;16.73;;
29412;SDS011;16389;50.126;8.450;2023-12-04T13:38:46;28.15;;;16.33;;
29412;SDS011;16389;50.126;8.450;2023-12-04T13:41:13;26.80;;;16.67;;
29412;SDS011;16389;50.126;8.450;2023-12-04T13:43:57;31.38;;;15.95;;
29412;SDS011;16389;50.126;8.450;2023-12-04T13:46:24;28.60;;;16.10;;
29412;SDS011;16389;50.126;8.450;2023-12-04T13:48:52;22.90;;;15.43;;
29412;SDS011;16389;50.126;8.450;2023-12-04T13:51:18;25.17;;;16.25;;
29412;SDS011;16389;50.126;8.450;2023-12-04T13:53:45;24.15;;;15.65;;
29412;SDS011;16389;50.126;8.450;2023-12-04T13:56:14;24.23;;;15.05;;
29412;SDS011;16389;50.126;8.450;2023-12-04T13:58:40;24.95;;;16.67;;
29412;SDS011;16389;50.126;8.450;2023-12-04T14:01:10;26.05;;;16.30;;
29412;SDS011;16389;50.126;8.450;2023-12-04T14:03:42;30.25;;;16.08;;
29412;SDS011;16389;50.126;8.450;2023-12-04T14:06:09;29.55;;;17.10;;
29412;SDS011;16389;50.126;8.450;2023-12-04T14:08:36;26.73;;;16.52;;
29412;SDS011;16389;50.126;8.450;2023-12-04T14:11:02;31.92;;;17.38;;
29412;SDS011;16389;50.126;8.450;2023-12-04T14:13:28;21.55;;;15.40;;
29412;SDS011;16389;50.126;8.450;2023-12-04T14:15:54;28.83;;;16.67;;
29412;SDS011;16389;50.126;8.450;2023-12-04T14:18:22;27.10;;;16.08;;
29412;SDS011;16389;50.126;8.450;2023-12-04T14:20:48;28.15;;;16.88;;
29412;SDS011;16389;50.126;8.450;2023-12-04T14:23:14;31.67;;;17.40;;
29412;SDS011;16389;50.126;8.450;2023-12-04T14:25:41;27.27;;;16.48;;
29412;SDS011;16389;50.126;8.450;2023-12-04T14:28:07;26.17;;;16.63;;